Time;durP1;ratioP1;P1;durP2;ratioP2;P2;SDS_P1;SDS_P2;PMS_P1;PMS_P2;Temp;Humidity;BMP_temperature;BMP_pressure;BME280_temperature;BME280_humidity;BME280_pressure;Samples;Min_cycle;Max_cycle;Signal;HPM_P1;HPM_P2
2023/10/27 00:01:33;;;;;;;2.20;1.40;;;;;;;13.31;100.00;100193.88;104387;1257;72669;-51
2023/10/27 00:04:00;;;;;;;3.10;1.90;;;;;;;13.29;100.00;100190.71;104665;1258;68125;-51
2023/10/27 00:06:32;;;;;;;4.20;1.30;;;;;;;13.28;100.00;100192.02;104598;1257;71478;-53
2023/10/27 00:09:00;;;;;;;2.60;1.20;;;;;;;13.26;100.00;100197.19;105324;1257;61682;-53
2023/10/27 00:11:28;;;;;;;2.70;1.30;;;;;;;13.24;100.00;100192.77;104643;1262;60424;-50
2023/10/27 00:13:55;;;;;;;1.80;1.20;;;;;;;13.23;100.00;100191.77;104667;1257;72866;-52
2023/10/27 00:16:22;;;;;;;1.50;1.00;;;;;;;13.22;100.00;100191.09;104392;1257;65765;-54
2023/10/27 00:18:50;;;;;;;2.70;1.30;;;;;;;13.21;100.00;100191.86;104476;1259;72762;-52
2023/10/27 00:21:18;;;;;;;1.20;1.10;;;;;;;13.21;100.00;100198.90;104582;1257;61614;-49
2023/10/27 00:23:45;;;;;;;2.90;1.30;;;;;;;13.20;100.00;100200.73;105147;1257;61174;-52
2023/10/27 00:26:13;;;;;;;1.70;1.20;;;;;;;13.19;100.00;100201.13;104418;1257;72684;-53
2023/10/27 00:28:42;;;;;;;2.40;1.00;;;;;;;13.19;100.00;100204.91;106965;1257;65689;-54
2023/10/27 00:31:10;;;;;;;2.00;1.20;;;;;;;13.19;100.00;100199.73;108413;1257;72734;-51
2023/10/27 00:33:37;;;;;;;3.80;1.20;;;;;;;13.18;100.00;100200.67;104267;1263;62067;-53
2023/10/27 00:36:05;;;;;;;1.80;1.20;;;;;;;13.17;100.00;100195.16;104485;1257;61484;-50
2023/10/27 00:38:33;;;;;;;1.40;0.90;;;;;;;13.15;100.00;100196.16;104410;1257;72540;-51
2023/10/27 00:41:00;;;;;;;1.70;1.10;;;;;;;13.14;100.00;100194.39;104329;1258;67013;-54
2023/10/27 00:43:28;;;;;;;3.10;1.10;;;;;;;13.14;100.00;100190.09;104689;1260;71505;-50
2023/10/27 00:45:55;;;;;;;2.70;1.10;;;;;;;13.13;100.00;100183.63;104574;1259;63151;-52
2023/10/27 00:48:23;;;;;;;1.20;1.00;;;;;;;13.12;100.00;100178.09;104266;1257;60679;-49
2023/10/27 00:50:50;;;;;;;3.40;1.10;;;;;;;13.10;100.00;100182.48;104247;1261;74352;-51
2023/10/27 00:53:19;;;;;;;1.40;0.90;;;;;;;13.08;100.00;100181.00;104497;1262;66136;-51
2023/10/27 00:55:47;;;;;;;2.40;1.00;;;;;;;13.05;100.00;100186.17;104639;1256;71516;-50
2023/10/27 00:58:14;;;;;;;7.70;1.10;;;;;;;13.03;100.00;100184.12;104394;1257;62210;-49
2023/10/27 01:00:42;;;;;;;2.70;1.20;;;;;;;13.02;100.00;100179.70;104638;1256;60796;-51
2023/10/27 01:03:09;;;;;;;3.20;1.00;;;;;;;13.00;100.00;100181.62;108452;1257;74072;-51
2023/10/27 01:05:37;;;;;;;1.60;1.30;;;;;;;12.99;100.00;100181.48;108854;1257;65647;-51
2023/10/27 01:08:04;;;;;;;1.40;1.10;;;;;;;12.99;100.00;100180.22;107115;1258;71472;-52
2023/10/27 01:10:31;;;;;;;3.00;1.10;;;;;;;12.99;100.00;100180.95;104424;1259;61947;-51
2023/10/27 01:12:59;;;;;;;1.50;0.90;;;;;;;12.98;100.00;100179.34;107815;1257;60545;-54
2023/10/27 01:15:29;;;;;;;3.40;1.00;;;;;;;12.99;100.00;100177.32;104568;1257;73910;-49
2023/10/27 01:17:57;;;;;;;1.40;1.30;;;;;;;12.99;100.00;100181.11;104448;1257;67113;-53
2023/10/27 01:20:24;;;;;;;2.20;1.20;;;;;;;12.98;100.00;100177.91;104448;1260;73592;-49
2023/10/27 01:22:52;;;;;;;1.20;0.90;;;;;;;12.96;100.00;100176.73;105007;1258;61094;-52
2023/10/27 01:25:19;;;;;;;6.10;0.90;;;;;;;12.95;100.00;100177.86;104331;1260;60566;-52
2023/10/27 01:27:47;;;;;;;1.10;0.90;;;;;;;12.93;100.00;100177.60;104353;1258;74238;-50
2023/10/27 01:30:14;;;;;;;3.40;1.00;;;;;;;12.92;100.00;100175.73;104299;1265;66969;-50
2023/10/27 01:32:43;;;;;;;1.70;1.10;;;;;;;12.90;100.00;100182.65;104616;1260;73161;-51
2023/10/27 01:35:11;;;;;;;1.80;0.90;;;;;;;12.89;100.00;100183.59;104149;1259;62762;-50
2023/10/27 01:37:38;;;;;;;3.50;1.10;;;;;;;12.87;100.00;100184.73;104420;1260;60797;-51
2023/10/27 01:40:06;;;;;;;3.50;1.10;;;;;;;12.86;100.00;100183.91;104370;1260;71785;-52
2023/10/27 01:42:35;;;;;;;1.40;1.20;;;;;;;12.85;100.00;100183.06;108628;1260;67132;-50
2023/10/27 01:45:06;;;;;;;1.50;1.10;;;;;;;12.83;100.00;100177.73;108615;1259;73135;-51
2023/10/27 01:47:33;;;;;;;1.80;1.00;;;;;;;12.82;100.00;100174.58;108518;1259;59884;-54
2023/10/27 01:50:01;;;;;;;3.10;1.00;;;;;;;12.80;100.00;100174.12;108657;1260;58832;-51
2023/10/27 01:52:28;;;;;;;1.80;0.90;;;;;;;12.78;100.00;100171.52;108663;1259;72669;-52
2023/10/27 01:54:57;;;;;;;1.20;0.90;;;;;;;12.76;100.00;100170.02;108645;1260;66965;-53
2023/10/27 01:57:25;;;;;;;2.20;1.00;;;;;;;12.74;100.00;100175.20;108595;1258;71482;-55
2023/10/27 01:59:52;;;;;;;1.10;0.90;;;;;;;12.73;100.00;100173.59;108565;1260;61847;-53
2023/10/27 02:02:20;;;;;;;2.70;1.00;;;;;;;12.72;100.00;100170.23;108513;1259;60087;-51
2023/10/27 02:04:47;;;;;;;1.40;1.00;;;;;;;12.71;100.00;100167.05;108588;1259;73875;-53
2023/10/27 02:07:15;;;;;;;1.10;0.90;;;;;;;12.69;100.00;100164.42;107715;1263;66209;-51
2023/10/27 02:09:43;;;;;;;1.90;0.90;;;;;;;12.68;100.00;100164.46;104347;1260;71451;-52
2023/10/27 02:12:11;;;;;;;2.30;1.10;;;;;;;12.66;100.00;100160.29;108608;1259;62204;-53
2023/10/27 02:14:38;;;;;;;1.30;0.90;;;;;;;12.64;100.00;100152.98;105796;1259;60468;-55
2023/10/27 02:17:06;;;;;;;1.30;0.90;;;;;;;12.62;100.00;100146.98;104517;1259;72664;-53
2023/10/27 02:19:33;;;;;;;1.20;1.00;;;;;;;12.60;100.00;100147.59;104484;1262;65504;-52
2023/10/27 02:22:02;;;;;;;1.40;0.90;;;;;;;12.57;100.00;100142.72;104356;1260;71438;-52
2023/10/27 02:24:29;;;;;;;1.50;1.00;;;;;;;12.54;100.00;100144.66;105326;1260;61801;-52
2023/10/27 02:26:58;;;;;;;1.30;0.90;;;;;;;12.52;100.00;100141.73;104771;1262;60438;-54
2023/10/27 02:29:25;;;;;;;2.50;0.70;;;;;;;12.49;100.00;100147.80;104294;1258;73333;-51
2023/10/27 02:31:53;;;;;;;1.30;0.90;;;;;;;12.47;100.00;100143.02;104309;1264;67526;-51
2023/10/27 02:34:20;;;;;;;2.70;1.00;;;;;;;12.45;100.00;100143.88;104368;1259;71469;-55
2023/10/27 02:36:48;;;;;;;0.90;0.70;;;;;;;12.42;100.00;100147.94;104442;1262;60699;-52
2023/10/27 02:39:15;;;;;;;0.90;0.80;;;;;;;12.41;100.00;100150.20;104323;1260;60585;-50
2023/10/27 02:41:42;;;;;;;1.20;0.90;;;;;;;12.39;100.00;100151.71;104378;1260;73976;-50
2023/10/27 02:44:09;;;;;;;1.90;0.90;;;;;;;12.36;100.00;100148.43;104286;1264;65709;-52
2023/10/27 02:46:37;;;;;;;0.90;0.80;;;;;;;12.35;100.00;100146.90;104241;1260;73144;-50
2023/10/27 02:49:04;;;;;;;1.90;1.10;;;;;;;12.34;100.00;100147.67;104396;1260;63885;-51
2023/10/27 02:51:32;;;;;;;5.20;0.80;;;;;;;12.33;100.00;100141.40;104347;1260;60685;-52
2023/10/27 02:54:02;;;;;;;2.70;1.00;;;;;;;12.33;100.00;100141.77;104541;1260;72652;-55
2023/10/27 02:56:29;;;;;;;1.90;0.70;;;;;;;12.33;100.00;100138.69;104204;1260;67391;-50
2023/10/27 02:58:57;;;;;;;3.20;1.10;;;;;;;12.32;100.00;100140.55;104292;1265;72060;-55
2023/10/27 03:01:24;;;;;;;1.40;0.90;;;;;;;12.31;100.00;100138.80;104273;1260;61754;-51
2023/10/27 03:03:51;;;;;;;1.40;1.10;;;;;;;12.30;100.00;100134.38;104449;1260;60546;-53
2023/10/27 03:06:19;;;;;;;1.60;0.80;;;;;;;12.29;100.00;100136.73;104328;1262;72669;-55
2023/10/27 03:08:46;;;;;;;1.10;0.90;;;;;;;12.28;100.00;100137.17;104514;1260;66947;-55
2023/10/27 03:11:13;;;;;;;2.30;1.00;;;;;;;12.26;100.00;100139.05;104490;1263;71394;-52
2023/10/27 03:13:41;;;;;;;1.20;0.80;;;;;;;12.24;100.00;100142.23;104219;1260;62271;-56
2023/10/27 03:16:08;;;;;;;1.20;0.90;;;;;;;12.22;100.00;100139.25;104468;1260;60904;-55
2023/10/27 03:18:35;;;;;;;1.10;1.00;;;;;;;12.20;100.00;100135.55;104489;1260;72618;-53
2023/10/27 03:21:03;;;;;;;1.50;1.40;;;;;;;12.18;100.00;100132.77;104757;1262;66233;-53
2023/10/27 03:23:31;;;;;;;1.80;0.90;;;;;;;12.16;100.00;100130.01;104397;1260;71477;-56
2023/10/27 03:25:58;;;;;;;1.70;0.90;;;;;;;12.14;100.00;100123.83;106743;1260;61828;-53
2023/10/27 03:28:26;;;;;;;3.40;0.90;;;;;;;12.11;100.00;100121.58;104449;1263;59668;-51
2023/10/27 03:30:53;;;;;;;2.10;0.90;;;;;;;12.09;100.00;100119.55;104264;1260;72684;-52
2023/10/27 03:33:21;;;;;;;1.30;1.00;;;;;;;12.07;100.00;100118.57;104388;1260;67175;-53
2023/10/27 03:35:48;;;;;;;1.20;1.10;;;;;;;12.05;100.00;100121.75;104524;1261;71535;-49
2023/10/27 03:38:17;;;;;;;1.20;0.80;;;;;;;12.03;100.00;100118.60;104430;1260;60546;-55
2023/10/27 03:40:47;;;;;;;4.30;1.50;;;;;;;12.01;100.00;100116.53;104771;1262;61085;-54
2023/10/27 03:43:15;;;;;;;5.50;1.80;;;;;;;11.99;100.00;100114.12;104298;1262;75016;-50
2023/10/27 03:45:42;;;;;;;2.10;1.50;;;;;;;11.97;100.00;100104.31;108684;1260;65658;-55
2023/10/27 03:48:10;;;;;;;2.10;1.90;;;;;;;11.95;100.00;100104.23;108581;1260;72854;-54
2023/10/27 03:50:37;;;;;;;2.20;1.90;;;;;;;11.93;100.00;100097.65;106621;1260;61725;-52
2023/10/27 03:53:04;;;;;;;1.90;1.70;;;;;;;11.92;100.00;100090.35;104326;1260;60160;-52
2023/10/27 03:55:32;;;;;;;1.40;1.20;;;;;;;11.89;100.00;100081.86;104365;1263;73950;-51
2023/10/27 03:58:15;;;;;;;3.80;1.20;;;;;;;11.88;100.00;100076.73;104370;1262;66951;-53
2023/10/27 04:00:43;;;;;;;1.50;1.00;;;;;;;11.86;100.00;100096.55;105298;1262;73246;-53
2023/10/27 04:03:11;;;;;;;7.50;1.50;;;;;;;11.85;100.00;100079.35;104565;1259;60519;-54
2023/10/27 04:05:38;;;;;;;2.10;1.30;;;;;;;11.84;100.00;100078.50;104639;1261;60508;-56
2023/10/27 04:08:06;;;;;;;2.60;1.10;;;;;;;11.82;100.00;100076.48;104552;1263;74420;-50
2023/10/27 04:10:36;;;;;;;1.40;1.10;;;;;;;11.80;100.00;100070.28;104481;1262;65609;-54
2023/10/27 04:13:04;;;;;;;7.20;1.10;;;;;;;11.78;100.00;100070.17;105176;1260;71453;-52
2023/10/27 04:15:31;;;;;;;1.50;1.30;;;;;;;11.76;100.00;100062.71;108710;1261;62231;-54
2023/10/27 04:18:00;;;;;;;1.60;1.40;;;;;;;11.73;100.00;100063.75;105250;1262;60456;-55
2023/10/27 04:20:27;;;;;;;1.20;1.10;;;;;;;11.70;100.00;100060.61;108601;1257;75047;-53
2023/10/27 04:22:55;;;;;;;1.30;1.00;;;;;;;11.68;100.00;100061.62;106440;1257;65919;-54
2023/10/27 04:25:23;;;;;;;1.90;0.80;;;;;;;11.66;100.00;100063.14;104481;1262;72746;-51
2023/10/27 04:27:50;;;;;;;1.20;0.90;;;;;;;11.64;100.00;100065.07;104371;1260;60447;-54
2023/10/27 04:30:18;;;;;;;3.80;0.90;;;;;;;11.61;100.00;100064.11;104458;1259;60313;-54
2023/10/27 04:32:45;;;;;;;2.10;0.80;;;;;;;11.60;100.00;100057.90;104497;1257;73890;-53
2023/10/27 04:35:13;;;;;;;0.90;0.80;;;;;;;11.58;100.00;100056.92;108654;1260;65656;-54
2023/10/27 04:37:41;;;;;;;2.50;1.00;;;;;;;11.55;100.00;100055.63;108672;1257;71455;-53
2023/10/27 04:40:09;;;;;;;1.50;0.80;;;;;;;11.52;100.00;100051.06;108722;1257;60655;-53
2023/10/27 04:42:36;;;;;;;1.70;1.00;;;;;;;11.51;100.00;100045.89;108649;1257;59587;-51
2023/10/27 04:45:04;;;;;;;3.20;0.90;;;;;;;11.51;100.00;100060.08;108612;1257;73930;-55
2023/10/27 04:47:31;;;;;;;1.50;1.10;;;;;;;11.51;100.00;100071.97;108570;1256;65675;-54
2023/10/27 04:49:59;;;;;;;1.40;0.90;;;;;;;11.51;100.00;100075.57;108699;1260;71434;-55
2023/10/27 04:52:26;;;;;;;3.60;1.00;;;;;;;11.51;100.00;100082.55;108831;1254;61642;-55
2023/10/27 04:54:55;;;;;;;3.30;0.90;;;;;;;11.51;100.00;100083.84;108955;1256;58821;-54
2023/10/27 04:57:22;;;;;;;4.70;0.80;;;;;;;11.50;100.00;100086.77;108757;1254;72665;-55
2023/10/27 04:59:50;;;;;;;2.20;0.90;;;;;;;11.49;100.00;100081.60;108907;1259;67325;-54
2023/10/27 05:02:17;;;;;;;1.50;1.10;;;;;;;11.48;100.00;100079.14;108779;1254;71829;-56
2023/10/27 05:04:44;;;;;;;9.00;1.00;;;;;;;11.48;100.00;100082.39;108898;1254;61647;-52
2023/10/27 05:07:12;;;;;;;1.20;0.90;;;;;;;11.48;100.00;100082.02;108774;1257;58857;-54
2023/10/27 05:09:39;;;;;;;0.90;0.80;;;;;;;11.48;100.00;100082.21;108955;1255;73960;-53
2023/10/27 05:12:07;;;;;;;1.60;0.80;;;;;;;11.48;100.00;100078.44;108859;1257;66440;-53
2023/10/27 05:14:34;;;;;;;2.10;1.00;;;;;;;11.46;100.00;100077.59;108918;1256;71605;-54
2023/10/27 05:17:02;;;;;;;1.30;1.00;;;;;;;11.44;100.00;100067.09;106933;1259;61699;-55
2023/10/27 05:19:30;;;;;;;0.90;0.80;;;;;;;11.42;100.00;100062.52;104458;1259;60591;-53
2023/10/27 05:21:57;;;;;;;2.20;1.10;;;;;;;11.41;100.00;100066.50;108785;1254;73805;-55
2023/10/27 05:24:25;;;;;;;1.30;1.10;;;;;;;11.41;100.00;100068.88;107034;1255;65572;-54
2023/10/27 05:26:53;;;;;;;2.20;1.90;;;;;;;11.41;100.00;100069.19;104782;1257;72734;-55
2023/10/27 05:29:20;;;;;;;2.60;1.20;;;;;;;11.42;100.00;100069.71;104593;1257;60783;-53
2023/10/27 05:31:47;;;;;;;3.20;1.20;;;;;;;11.43;100.00;100065.16;104835;1255;60443;-51
2023/10/27 05:34:15;;;;;;;3.70;1.40;;;;;;;11.46;100.00;100065.94;104673;1254;72752;-53
2023/10/27 05:36:43;;;;;;;5.20;1.40;;;;;;;11.49;100.00;100076.75;104833;1255;67070;-51
2023/10/27 05:39:16;;;;;;;2.30;1.10;;;;;;;11.53;100.00;100079.95;104806;1257;72729;-54
2023/10/27 05:41:45;;;;;;;3.10;1.30;;;;;;;11.60;100.00;100094.02;104833;1254;60909;-49
2023/10/27 05:44:14;;;;;;;1.70;1.10;;;;;;;11.66;100.00;100101.09;105500;1254;60424;-52
2023/10/27 05:46:41;;;;;;;4.90;1.20;;;;;;;11.72;100.00;100105.29;104790;1254;74351;-54
2023/10/27 05:49:09;;;;;;;1.40;1.00;;;;;;;11.78;100.00;100105.41;104688;1257;67283;-53
2023/10/27 05:51:36;;;;;;;3.00;1.20;;;;;;;11.84;100.00;100110.50;104829;1254;73145;-54
2023/10/27 05:54:05;;;;;;;1.10;1.00;;;;;;;11.90;100.00;100121.02;104593;1259;62144;-51
2023/10/27 05:56:32;;;;;;;1.10;1.00;;;;;;;11.97;100.00;100129.52;104770;1254;60490;-54
2023/10/27 05:58:59;;;;;;;2.60;1.00;;;;;;;12.03;100.00;100132.61;104642;1260;73927;-50
2023/10/27 06:01:27;;;;;;;2.80;1.00;;;;;;;12.09;100.00;100147.41;104656;1254;65882;-53
2023/10/27 06:03:57;;;;;;;2.10;0.90;;;;;;;12.17;100.00;100157.69;108957;1254;72663;-55
2023/10/27 06:06:26;;;;;;;2.10;1.10;;;;;;;12.23;100.00;100169.98;109026;1254;61790;-56
2023/10/27 06:08:53;;;;;;;1.60;1.10;;;;;;;12.28;100.00;100173.69;107804;1254;59227;-50
2023/10/27 06:11:21;;;;;;;2.20;1.10;;;;;;;12.33;100.00;100187.86;104928;1259;72691;-52
2023/10/27 06:13:48;;;;;;;2.00;1.30;;;;;;;12.37;100.00;100200.79;104610;1255;67558;-50
2023/10/27 06:16:16;;;;;;;1.90;1.20;;;;;;;12.41;100.00;100217.89;104809;1257;70772;-52
2023/10/27 06:18:43;;;;;;;2.40;1.60;;;;;;;12.44;100.00;100231.00;107684;1255;61766;-53
2023/10/27 06:21:11;;;;;;;3.00;1.20;;;;;;;12.47;100.00;100239.86;104791;1260;60104;-53
2023/10/27 06:23:38;;;;;;;1.60;1.20;;;;;;;12.50;100.00;100249.30;104722;1257;72656;-53
2023/10/27 06:26:05;;;;;;;1.60;1.10;;;;;;;12.52;100.00;100250.95;104536;1256;68165;-52
2023/10/27 06:28:34;;;;;;;3.10;1.10;;;;;;;12.54;100.00;100260.44;104657;1260;71725;-51
2023/10/27 06:31:03;;;;;;;2.00;1.10;;;;;;;12.55;100.00;100270.45;108777;1254;61760;-55
2023/10/27 06:33:33;;;;;;;2.20;1.00;;;;;;;12.57;100.00;100271.27;107064;1255;60565;-52
2023/10/27 06:38:13;;;;;;;4.00;1.30;;;;;;;12.62;100.00;100281.46;101790;1294;601082;-49
2023/10/27 06:40:41;;;;;;;2.10;1.60;;;;;;;12.62;100.00;100465.99;103938;1272;62145;-50
2023/10/27 06:43:08;;;;;;;1.60;1.00;;;;;;;12.66;100.00;100445.15;103936;1267;59891;-50
2023/10/27 06:45:35;;;;;;;2.60;1.30;;;;;;;12.70;100.00;100427.48;103665;1268;71993;-51
2023/10/27 06:48:03;;;;;;;3.90;1.20;;;;;;;12.72;100.00;100423.60;103795;1271;65647;-53
2023/10/27 06:50:30;;;;;;;3.40;1.20;;;;;;;12.75;100.00;100428.52;106904;1267;72630;-51
2023/10/27 06:52:58;;;;;;;2.40;0.90;;;;;;;12.77;100.00;100428.20;103825;1263;153341;-55
2023/10/27 06:55:29;;;;;;;1.40;1.30;;;;;;;12.80;100.00;100436.71;103902;1265;59652;-51
2023/10/27 06:57:56;;;;;;;1.50;1.40;;;;;;;12.83;100.00;100435.64;104103;1268;72016;-50
2023/10/27 07:00:24;;;;;;;2.80;1.70;;;;;;;12.87;100.00;100438.71;103998;1270;66703;-51
2023/10/27 07:02:51;;;;;;;2.40;1.30;;;;;;;12.90;100.00;100445.97;103756;1267;71486;-51
2023/10/27 07:05:23;;;;;;;2.20;1.30;;;;;;;12.94;100.00;100456.77;103989;1267;60407;-54
2023/10/27 07:07:52;;;;;;;5.30;2.10;;;;;;;13.00;100.00;100456.52;108204;1263;58972;-54
2023/10/27 07:10:19;;;;;;;7.60;1.70;;;;;;;13.06;100.00;100459.27;105840;1264;71814;-53
2023/10/27 07:12:47;;;;;;;3.70;1.30;;;;;;;13.11;100.00;100466.95;103898;1269;66743;-50
2023/10/27 07:15:14;;;;;;;2.00;1.60;;;;;;;13.16;100.00;100474.36;103834;1267;71216;-50
2023/10/27 07:17:42;;;;;;;2.30;1.90;;;;;;;13.21;100.00;100480.92;103913;1270;62258;-52
2023/10/27 07:20:10;;;;;;;2.30;1.70;;;;;;;13.28;100.00;100495.22;104806;1268;59579;-53
2023/10/27 07:22:37;;;;;;;3.10;1.80;;;;;;;13.36;100.00;100504.91;106082;1269;73179;-52
2023/10/27 07:25:05;;;;;;;2.20;1.50;;;;;;;13.45;100.00;100519.11;103924;1269;64809;-50
2023/10/27 07:27:33;;;;;;;3.40;1.50;;;;;;;13.53;100.00;100538.68;104086;1267;73690;-51
2023/10/27 07:30:00;;;;;;;2.60;1.60;;;;;;;13.63;100.00;100551.04;104069;1264;61735;-53
2023/10/27 07:32:28;;;;;;;4.00;1.90;;;;;;;13.71;100.00;100567.42;104136;1275;60208;-52
2023/10/27 07:34:55;;;;;;;5.00;1.70;;;;;;;13.79;100.00;100581.30;104190;1264;73555;-50
2023/10/27 07:37:23;;;;;;;1.40;1.30;;;;;;;13.86;100.00;100597.36;104083;1264;65792;-50
2023/10/27 07:39:51;;;;;;;1.60;1.50;;;;;;;13.93;100.00;100612.33;108533;1257;72449;-55
2023/10/27 07:42:18;;;;;;;4.90;2.10;;;;;;;14.02;100.00;100626.71;108505;1261;62691;-51
2023/10/27 07:44:45;;;;;;;2.10;1.50;;;;;;;14.09;100.00;100640.44;108540;1259;60105;-54
2023/10/27 07:47:14;;;;;;;3.30;1.50;;;;;;;14.17;100.00;100658.98;108534;1259;73502;-50
2023/10/27 07:49:41;;;;;;;1.50;1.20;;;;;;;14.26;100.00;100677.70;108454;1260;65521;-52
2023/10/27 07:52:09;;;;;;;3.00;1.40;;;;;;;14.34;100.00;100695.50;108458;1261;72749;-51
2023/10/27 07:54:37;;;;;;;3.90;1.20;;;;;;;14.45;100.00;100720.11;108496;1261;60536;-51
2023/10/27 07:57:04;;;;;;;1.80;1.60;;;;;;;14.56;100.00;100743.62;108449;1260;61262;-52
2023/10/27 07:59:32;;;;;;;2.50;1.20;;;;;;;14.65;100.00;100759.98;108518;1260;73129;-52
2023/10/27 08:01:59;;;;;;;0.90;0.80;;;;;;;14.74;100.00;100783.36;108431;1260;67083;-51
2023/10/27 08:04:32;;;;;;;1.60;0.90;;;;;;;14.84;100.00;100800.94;108393;1260;73302;-51
2023/10/27 08:06:59;;;;;;;1.20;1.00;;;;;;;14.93;100.00;100822.89;108560;1260;62107;-51
2023/10/27 08:09:29;;;;;;;1.30;0.90;;;;;;;15.02;100.00;100837.80;108512;1259;58987;-52
2023/10/27 08:11:57;;;;;;;2.10;1.30;;;;;;;15.11;100.00;100862.30;108557;1260;71905;-53
2023/10/27 08:14:24;;;;;;;1.50;0.90;;;;;;;15.20;100.00;100879.21;108550;1261;66783;-52
2023/10/27 08:16:52;;;;;;;1.90;1.10;;;;;;;15.27;100.00;100895.85;108386;1260;73173;-52
2023/10/27 08:19:20;;;;;;;1.00;0.80;;;;;;;15.36;100.00;100920.19;107278;1261;61758;-49
2023/10/27 08:21:48;;;;;;;1.30;0.90;;;;;;;15.44;100.00;100946.91;108487;1260;59462;-51
2023/10/27 08:24:16;;;;;;;2.70;0.90;;;;;;;15.51;100.00;100966.30;108495;1260;73126;-54
2023/10/27 08:26:43;;;;;;;1.20;1.00;;;;;;;15.55;100.00;100980.27;104737;1264;69530;-49
2023/10/27 08:29:11;;;;;;;1.00;0.80;;;;;;;15.60;100.00;101005.86;104166;1262;71465;-54
2023/10/27 08:31:38;;;;;;;1.30;0.90;;;;;;;15.66;100.00;101019.85;104459;1264;61790;-52
2023/10/27 08:34:10;;;;;;;1.80;1.00;;;;;;;15.70;100.00;101031.98;104506;1260;59769;-53
2023/10/27 08:36:39;;;;;;;2.10;0.80;;;;;;;15.74;100.00;101059.62;105545;1261;71888;-53
2023/10/27 08:39:06;;;;;;;3.30;0.70;;;;;;;15.79;100.00;101070.81;104139;1265;67193;-54
2023/10/27 08:41:36;;;;;;;2.20;0.90;;;;;;;15.84;100.00;101086.11;104065;1265;72620;-53
2023/10/27 08:44:07;;;;;;;1.20;0.80;;;;;;;15.91;100.00;101110.58;104771;1260;59803;-52
2023/10/27 08:46:53;;;;;;;1.10;0.90;;;;;;;15.99;100.00;101159.77;107265;1260;60359;-53
2023/10/27 08:49:21;;;;;;;2.60;0.80;;;;;;;16.05;100.00;101162.02;104130;1259;71848;-52
2023/10/27 08:51:49;;;;;;;4.50;0.80;;;;;;;16.09;100.00;101173.58;104104;1260;65782;-54
2023/10/27 08:54:16;;;;;;;1.10;0.70;;;;;;;16.09;100.00;101182.81;103882;1261;73568;-52
2023/10/27 08:56:44;;;;;;;4.70;1.00;;;;;;;16.06;100.00;101185.33;104307;1260;61773;-53
2023/10/27 08:59:11;;;;;;;3.50;0.70;;;;;;;16.05;100.00;101187.91;104497;1267;59628;-51
2023/10/27 09:01:39;;;;;;;2.70;0.70;;;;;;;16.07;100.00;101187.14;104424;1263;73141;-52
2023/10/27 09:04:07;;;;;;;1.50;0.80;;;;;;;16.12;100.00;101203.36;104471;1260;66931;-52
2023/10/27 09:06:35;;;;;;;5.10;0.90;;;;;;;16.18;100.00;101220.08;105400;1260;71483;-51
2023/10/27 09:09:06;;;;;;;0.90;0.60;;;;;;;16.23;100.00;101228.88;104815;1265;60493;-49
2023/10/27 09:11:42;;;;;;;2.70;0.90;;;;;;;16.27;100.00;101248.39;104449;1260;60290;-52
2023/10/27 09:14:15;;;;;;;2.80;1.00;;;;;;;16.27;100.00;101259.08;104876;1260;73501;-49
2023/10/27 09:16:43;;;;;;;1.10;0.60;;;;;;;16.23;100.00;101261.14;104475;1261;67156;-50
2023/10/27 09:19:27;;;;;;;3.50;0.90;;;;;;;16.15;100.00;101239.94;106743;1261;73188;-51
2023/10/27 09:21:54;;;;;;;3.80;1.10;;;;;;;16.09;100.00;101269.19;104762;1261;60819;-50
2023/10/27 09:24:26;;;;;;;0.90;0.70;;;;;;;16.07;100.00;101244.13;103985;1261;60281;-53
2023/10/27 09:26:54;;;;;;;1.80;0.70;;;;;;;16.08;100.00;101245.91;104571;1254;73108;-53
2023/10/27 09:29:22;;;;;;;5.10;1.00;;;;;;;16.11;100.00;101243.40;104705;1254;65804;-53
2023/10/27 09:31:50;;;;;;;0.90;0.60;;;;;;;16.15;100.00;101244.48;104333;1262;73147;-51
2023/10/27 09:34:25;;;;;;;2.10;0.60;;;;;;;16.19;100.00;101239.55;104229;1258;60809;-54
2023/10/27 09:36:58;;;;;;;1.80;0.90;;;;;;;16.24;100.00;101259.07;104909;1254;61001;-52
2023/10/27 09:39:26;;;;;;;1.90;0.60;;;;;;;16.29;100.00;101269.50;104680;1254;73146;-50
2023/10/27 09:42:01;;;;;;;1.40;0.60;;;;;;;16.34;100.00;101264.23;104554;1254;67275;-50
2023/10/27 09:44:54;;;;;;;1.50;0.60;;;;;;;16.39;100.00;101292.62;104456;1256;72020;-52
2023/10/27 09:47:34;;;;;;;2.00;0.90;;;;;;;16.43;100.00;101321.02;104519;1254;59743;-52
2023/10/27 09:50:06;;;;;;;0.90;0.70;;;;;;;16.46;100.00;101315.08;104502;1254;60206;-51
2023/10/27 09:52:34;;;;;;;2.20;0.70;;;;;;;16.50;100.00;101309.78;104261;1254;73099;-54
2023/10/27 09:55:01;;;;;;;1.60;1.00;;;;;;;16.52;100.00;101303.55;104176;1257;67101;-53
2023/10/27 09:57:44;;;;;;;0.90;0.60;;;;;;;16.52;100.00;101326.75;104647;1257;71484;-52
2023/10/27 10:00:14;;;;;;;1.40;0.60;;;;;;;16.55;100.00;101314.82;104333;1261;60565;-52
2023/10/27 10:02:42;;;;;;;0.70;0.50;;;;;;;16.58;100.00;101309.05;105172;1254;60526;-52
2023/10/27 10:05:11;;;;;;;4.90;0.70;;;;;;;16.60;100.00;101312.21;104654;1257;71877;-52
2023/10/27 10:07:53;;;;;;;2.90;0.70;;;;;;;16.61;100.00;101314.73;104191;1262;66268;-53
2023/10/27 10:10:34;;;;;;;0.90;0.60;;;;;;;16.62;100.00;101338.41;107840;1254;72732;-51
2023/10/27 10:13:09;;;;;;;1.10;0.50;;;;;;;16.65;100.00;101339.39;104395;1257;59661;-54
2023/10/27 10:15:38;;;;;;;2.40;0.60;;;;;;;16.67;100.00;101333.52;108879;1254;60093;-53
2023/10/27 10:18:07;;;;;;;1.90;0.80;;;;;;;16.66;100.00;101320.88;108793;1254;73036;-55
2023/10/27 10:20:52;;;;;;;0.90;0.50;;;;;;;16.63;100.00;101315.71;108736;1259;66956;-52
2023/10/27 10:23:20;;;;;;;0.70;0.40;;;;;;;16.61;100.00;101342.80;108779;1253;72755;-54
2023/10/27 10:25:54;;;;;;;3.60;0.50;;;;;;;16.60;100.00;101312.39;107012;1256;60470;-54
2023/10/27 10:28:29;;;;;;;1.00;0.50;;;;;;;16.61;100.00;101325.61;108856;1254;58901;-55
2023/10/27 10:31:18;;;;;;;2.10;0.60;;;;;;;16.61;100.00;101327.58;108778;1254;73450;-52
2023/10/27 10:33:48;;;;;;;1.00;0.50;;;;;;;16.63;100.00;101349.42;108695;1254;69248;-53
2023/10/27 10:36:18;;;;;;;0.40;0.40;;;;;;;16.66;100.00;101324.10;108655;1256;71456;-51
2023/10/27 10:39:13;;;;;;;1.30;0.50;;;;;;;16.69;100.00;101323.43;108768;1254;60166;-52
2023/10/27 10:41:40;;;;;;;;;;;;;;;16.71;100.00;101368.29;105658;1254;59227;-52
2023/10/27 10:44:15;;;;;;;3.70;0.50;;;;;;;16.71;100.00;101317.55;104573;1260;73537;-54
2023/10/27 10:46:43;;;;;;;;;;;;;;;16.70;100.00;101327.20;108782;1254;67404;-52
2023/10/27 10:49:26;;;;;;;0.90;0.40;;;;;;;16.68;100.00;101312.60;108758;1256;71570;-53
2023/10/27 10:51:58;;;;;;;0.70;0.50;;;;;;;16.64;100.00;101341.59;108656;1254;63856;-53
2023/10/27 10:54:28;;;;;;;0.30;0.30;;;;;;;16.62;100.00;101305.63;108679;1254;58970;-54
2023/10/27 10:57:03;;;;;;;0.70;0.30;;;;;;;16.60;100.00;101298.27;108788;1255;74560;-54
2023/10/27 10:59:31;;;;;;;1.00;0.40;;;;;;;16.60;100.00;101304.23;108704;1254;67546;-54
2023/10/27 11:01:58;;;;;;;1.40;0.40;;;;;;;16.61;100.00;101289.71;108771;1256;71479;-52
2023/10/27 11:04:30;;;;;;;0.70;0.40;;;;;;;16.63;100.00;101285.64;108787;1254;60122;-51
2023/10/27 11:07:02;;;;;;;0.50;0.30;;;;;;;16.64;100.00;101295.94;108746;1254;59013;-52
2023/10/27 11:09:31;;;;;;;3.30;0.60;;;;;;;16.67;100.00;101284.38;108702;1254;71622;-52
2023/10/27 11:11:59;;;;;;;0.70;0.40;;;;;;;16.70;100.00;101283.14;108574;1254;65904;-51
2023/10/27 11:14:27;;;;;;;1.40;0.30;;;;;;;16.74;100.00;101279.52;108549;1254;72723;-55
2023/10/27 11:16:56;;;;;;;1.10;0.40;;;;;;;16.79;100.00;101283.79;108549;1254;58882;-51
2023/10/27 11:19:23;;;;;;;1.60;0.40;;;;;;;16.83;100.00;101286.66;108800;1254;60169;-53